createdAt,value
2022-12-20T05:00:15.864Z,100475.95
2022-12-20T05:02:47.663Z,100487.98
2022-12-20T05:05:19.695Z,100493.10
2022-12-20T05:07:53.771Z,100489.02
2022-12-20T05:10:22.688Z,100486.37
2022-12-20T05:12:52.602Z,100483.19
2022-12-20T05:15:35.710Z,100492.02
2022-12-20T05:18:05.742Z,100493.52
2022-12-20T05:20:46.219Z,100493.66
2022-12-20T05:23:34.799Z,100489.91
2022-12-20T05:26:18.995Z,100490.48
2022-12-20T05:28:48.999Z,100490.80
2022-12-20T05:31:18.062Z,100489.80
2022-12-20T05:33:47.259Z,100485.06
2022-12-20T05:36:17.643Z,100486.53
2022-12-20T05:38:48.347Z,100492.73
2022-12-20T05:41:19.492Z,100500.35
2022-12-20T05:43:50.286Z,100499.39
2022-12-20T05:46:19.471Z,100497.69
2022-12-20T05:48:57.774Z,100497.57
2022-12-20T05:51:26.874Z,100496.83
2022-12-20T05:54:02.180Z,100498.88
2022-12-20T05:56:54.636Z,100498.61
2022-12-20T05:59:27.424Z,100494.84
2022-12-20T06:01:57.487Z,100490.71
2022-12-20T06:04:27.479Z,100488.38
2022-12-20T06:06:56.587Z,100485.36
2022-12-20T06:09:25.952Z,100489.46
2022-12-20T06:12:06.994Z,100490.73
2022-12-20T06:14:36.279Z,100491.35
2022-12-20T06:17:05.619Z,100486.86
2022-12-20T06:19:34.853Z,100482.11
2022-12-20T06:22:04.652Z,100494.63
2022-12-20T06:24:48.247Z,100506.34
2022-12-20T06:27:22.919Z,100514.34
2022-12-20T06:30:00.830Z,100514.80
2022-12-20T06:32:35.837Z,100506.13
2022-12-20T06:35:05.627Z,100506.95
2022-12-20T06:37:34.570Z,100513.08
2022-12-20T06:40:04.760Z,100516.95
2022-12-20T06:42:33.405Z,100520.92
2022-12-20T06:45:01.604Z,100515.43
2022-12-20T06:47:30.581Z,100518.21
2022-12-20T06:49:59.224Z,100512.83
2022-12-20T06:52:28.504Z,100518.14
2022-12-20T06:54:56.920Z,100522.83
2022-12-20T06:57:25.474Z,100531.35
2022-12-20T06:59:54.677Z,100530.13
2022-12-20T07:02:25.330Z,100530.48
2022-12-20T07:04:56.801Z,100528.63
2022-12-20T07:07:25.674Z,100530.62
2022-12-20T07:09:53.713Z,100525.86
2022-12-20T07:12:22.398Z,100524.84
2022-12-20T07:14:50.605Z,100529.44
2022-12-20T07:17:18.676Z,100528.93
2022-12-20T07:19:51.043Z,100534.99
2022-12-20T07:22:19.684Z,100536.73
2022-12-20T07:24:51.482Z,100536.58
2022-12-20T07:27:19.670Z,100537.02
2022-12-20T07:29:48.348Z,100533.31
2022-12-20T07:32:20.416Z,100535.66
2022-12-20T07:34:54.045Z,100537.04
2022-12-20T07:37:23.217Z,100543.52
2022-12-20T07:39:52.073Z,100544.05
2022-12-20T07:42:20.776Z,100539.27
2022-12-20T07:44:52.520Z,100532.04
2022-12-20T07:47:21.678Z,100540.95
2022-12-20T07:49:50.687Z,100541.30
2022-12-20T07:52:23.638Z,100546.08
2022-12-20T07:54:58.061Z,100539.80
2022-12-20T07:57:32.871Z,100543.01
2022-12-20T08:00:04.038Z,100537.31
2022-12-20T08:03:03.881Z,100542.55
2022-12-20T08:05:36.661Z,100545.86
2022-12-20T08:08:06.754Z,100541.11
2022-12-20T08:10:38.982Z,100533.21
2022-12-20T08:13:08.554Z,100529.85
2022-12-20T08:15:38.210Z,100531.91
2022-12-20T08:18:07.230Z,100533.79
2022-12-20T08:20:35.402Z,100530.77
2022-12-20T08:23:05.500Z,100536.20
2022-12-20T08:25:41.808Z,100543.25
2022-12-20T08:28:11.049Z,100541.11
2022-12-20T08:30:40.059Z,100543.68
2022-12-20T08:33:08.791Z,100538.05
2022-12-20T08:35:37.449Z,100534.64
2022-12-20T08:38:06.294Z,100527.44
2022-12-20T08:40:34.925Z,100517.14
2022-12-20T08:43:09.754Z,100514.06
2022-12-20T08:45:38.687Z,100513.27
2022-12-20T08:48:07.843Z,100511.28
2022-12-20T08:50:36.912Z,100513.31
2022-12-20T08:53:05.883Z,100517.26
2022-12-20T08:55:34.338Z,100517.53
2022-12-20T08:58:03.167Z,100513.29
2022-12-20T09:00:32.228Z,100510.86
2022-12-20T09:03:01.430Z,100512.93
2022-12-20T09:05:31.339Z,100520.14
2022-12-20T09:08:00.662Z,100520.08
2022-12-20T09:10:29.587Z,100521.37
2022-12-20T09:13:00.836Z,100525.45
2022-12-20T09:15:29.831Z,100523.86
2022-12-20T09:18:00.888Z,100527.02
2022-12-20T09:20:31.107Z,100530.61
2022-12-20T09:23:01.232Z,100521.19
2022-12-20T09:25:29.960Z,100528.72
2022-12-20T09:27:59.904Z,100528.02
2022-12-20T09:30:28.937Z,100530.19
2022-12-20T09:32:57.509Z,100526.02
2022-12-20T09:35:38.121Z,100524.02
2022-12-20T09:38:07.096Z,100524.05
2022-12-20T09:40:39.158Z,100524.27
2022-12-20T09:43:10.980Z,100532.60
2022-12-20T09:45:40.169Z,100530.44
2022-12-20T09:48:31.483Z,100518.00
2022-12-20T09:51:19.145Z,100512.98
2022-12-20T09:54:16.185Z,100515.73
2022-12-20T09:56:52.475Z,100513.95
2022-12-20T09:59:22.011Z,100507.95
2022-12-20T10:01:51.466Z,100505.29
2022-12-20T10:04:28.220Z,100500.98
2022-12-20T10:07:39.853Z,100488.71
2022-12-20T10:10:29.266Z,100470.11
2022-12-20T10:13:01.206Z,100474.75
2022-12-20T10:15:38.428Z,100464.96
2022-12-20T10:18:07.335Z,100458.98
2022-12-20T10:20:55.638Z,100454.05
2022-12-20T10:23:39.582Z,100454.23
2022-12-20T10:26:13.924Z,100463.96
2022-12-20T10:28:42.488Z,100460.23
2022-12-20T10:31:16.532Z,100457.70
2022-12-20T10:33:46.615Z,100454.57
2022-12-20T10:36:42.571Z,100449.67
2022-12-20T10:39:11.703Z,100440.45
2022-12-20T10:41:43.796Z,100430.46
2022-12-20T10:44:21.086Z,100430.50
2022-12-20T10:47:02.064Z,100434.20
2022-12-20T10:49:34.734Z,100437.95
2022-12-20T10:52:10.194Z,100437.05
2022-12-20T10:54:44.232Z,100442.20
2022-12-20T10:57:22.851Z,100440.77
2022-12-20T10:59:55.237Z,100446.65
2022-12-20T11:02:40.015Z,100444.09
2022-12-20T11:05:11.354Z,100452.41
2022-12-20T11:08:34.602Z,100454.92
2022-12-20T11:11:19.573Z,100444.09
2022-12-20T11:13:52.824Z,100439.09
2022-12-20T11:16:27.619Z,100435.62
2022-12-20T11:19:40.030Z,100436.32
2022-12-20T11:22:24.771Z,100434.11
2022-12-20T11:25:21.557Z,100436.97
2022-12-20T11:27:56.799Z,100443.69
2022-12-20T11:30:43.781Z,100438.77
2022-12-20T11:33:16.247Z,100436.59
2022-12-20T11:35:57.438Z,100431.83
2022-12-20T11:38:47.128Z,100422.66
2022-12-20T11:41:53.011Z,100429.23
2022-12-20T11:44:53.882Z,100424.27
2022-12-20T11:47:52.955Z,100426.48
2022-12-20T11:50:40.770Z,100420.45
2022-12-20T11:53:21.497Z,100415.33
2022-12-20T11:55:54.769Z,100423.96
2022-12-20T11:58:52.462Z,100434.39
2022-12-20T12:01:27.751Z,100438.48
2022-12-20T12:03:56.354Z,100433.81
2022-12-20T12:06:30.302Z,100438.91
2022-12-20T12:09:13.810Z,100439.81
2022-12-20T12:12:08.491Z,100437.45
2022-12-20T12:15:00.593Z,100438.13
2022-12-20T12:17:51.687Z,100435.82
2022-12-20T12:20:42.296Z,100426.98
2022-12-20T12:23:26.955Z,100417.93
2022-12-20T12:25:55.980Z,100410.63
2022-12-20T12:28:25.087Z,100406.60
2022-12-20T12:31:01.227Z,100406.67
2022-12-20T12:33:39.183Z,100408.69
2022-12-20T12:36:08.943Z,100403.56
2022-12-20T12:39:06.034Z,100408.95
2022-12-20T12:41:47.834Z,100418.76
2022-12-20T12:44:20.932Z,100422.05
2022-12-20T12:47:05.879Z,100421.33
2022-12-20T12:49:36.860Z,100416.74
2022-12-20T12:52:07.445Z,100416.59
2022-12-20T12:54:41.189Z,100416.27
2022-12-20T12:57:09.571Z,100412.39
2022-12-20T12:59:38.469Z,100410.30
2022-12-20T13:02:14.118Z,100406.98
2022-12-20T13:05:26.253Z,100406.38
2022-12-20T13:07:55.706Z,100400.77
2022-12-20T13:10:29.747Z,100400.35
2022-12-20T13:13:03.341Z,100399.14
2022-12-20T13:15:33.157Z,100394.91
2022-12-20T13:18:18.511Z,100398.86
2022-12-20T13:21:40.456Z,100402.23
2022-12-20T13:25:14.377Z,100407.43
2022-12-20T13:27:43.611Z,100408.72
2022-12-20T13:30:13.057Z,100403.16
2022-12-20T13:32:48.172Z,100399.36
2022-12-20T13:35:29.905Z,100405.04
2022-12-20T13:38:14.535Z,100404.29
2022-12-20T13:41:01.770Z,100417.48
2022-12-20T13:43:43.102Z,100412.76
2022-12-20T13:46:11.706Z,100408.61
2022-12-20T13:48:53.349Z,100410.39
2022-12-20T13:51:24.599Z,100409.20
2022-12-20T13:54:02.314Z,100410.78
2022-12-20T13:56:48.597Z,100411.89
2022-12-20T13:59:32.753Z,100411.70
2022-12-20T14:02:03.333Z,100403.13
2022-12-20T14:04:46.743Z,100394.77
2022-12-20T14:07:18.412Z,100399.42
2022-12-20T14:09:56.207Z,100397.57
2022-12-20T14:12:28.776Z,100390.67
2022-12-20T14:15:03.101Z,100387.85
2022-12-20T14:17:33.997Z,100389.73
2022-12-20T14:20:07.740Z,100382.16
2022-12-20T14:22:37.258Z,100382.24
2022-12-20T14:25:08.421Z,100380.21
2022-12-20T14:27:39.107Z,100384.52
2022-12-20T14:30:26.673Z,100383.58
2022-12-20T14:32:57.559Z,100382.10
2022-12-20T14:35:28.302Z,100376.79
2022-12-20T14:38:00.648Z,100376.73
2022-12-20T14:40:31.039Z,100371.98
2022-12-20T14:43:16.077Z,100374.80
2022-12-20T14:45:45.106Z,100375.20
2022-12-20T14:48:17.462Z,100371.87
2022-12-20T14:50:54.291Z,100371.68
2022-12-20T14:53:29.149Z,100367.31
2022-12-20T14:55:58.343Z,100365.84
2022-12-20T14:58:34.684Z,100366.17
2022-12-20T15:01:20.445Z,100361.66
2022-12-20T15:03:56.822Z,100363.22
2022-12-20T15:06:32.542Z,100356.19
2022-12-20T15:09:02.023Z,100349.23
2022-12-20T15:11:31.489Z,100348.22
2022-12-20T15:14:01.427Z,100340.77
2022-12-20T15:16:31.552Z,100344.02
2022-12-20T15:19:02.566Z,100341.73
2022-12-20T15:21:57.890Z,100347.95
2022-12-20T15:24:28.625Z,100344.61
2022-12-20T15:26:56.918Z,100351.20
2022-12-20T15:29:28.456Z,100360.05
2022-12-20T15:32:24.832Z,100361.34
2022-12-20T15:34:53.680Z,100356.95
2022-12-20T15:37:22.600Z,100356.45
2022-12-20T15:39:52.018Z,100347.27
2022-12-20T15:42:23.632Z,100343.66
2022-12-20T15:44:52.975Z,100342.63
2022-12-20T15:47:21.849Z,100338.66
2022-12-20T15:49:50.858Z,100342.19
2022-12-20T15:52:22.222Z,100342.98
2022-12-20T15:54:50.922Z,100333.56
2022-12-20T15:57:21.476Z,100320.73
2022-12-20T16:00:01.809Z,100328.20
2022-12-20T16:02:39.892Z,100328.82
2022-12-20T16:05:13.895Z,100333.27
2022-12-20T16:07:42.712Z,100325.73
2022-12-20T16:10:15.730Z,100336.95
2022-12-20T16:12:45.863Z,100339.78
2022-12-20T16:15:22.511Z,100335.17
2022-12-20T16:17:51.808Z,100331.12
2022-12-20T16:20:20.759Z,100321.71
2022-12-20T16:22:49.997Z,100322.78
2022-12-20T16:25:31.821Z,100320.14
2022-12-20T16:28:00.725Z,100314.08
2022-12-20T16:30:29.151Z,100316.49
2022-12-20T16:32:59.555Z,100306.48
2022-12-20T16:35:34.746Z,100298.83
2022-12-20T16:38:05.143Z,100300.74
2022-12-20T16:40:35.007Z,100301.58
2022-12-20T16:43:04.126Z,100301.04
2022-12-20T16:45:35.174Z,100309.55
2022-12-20T16:48:04.200Z,100310.03
2022-12-20T16:50:33.531Z,100306.98
2022-12-20T16:53:02.845Z,100309.59
2022-12-20T16:55:39.316Z,100316.89
2022-12-20T16:58:08.518Z,100322.23
2022-12-20T17:00:38.420Z,100329.65
2022-12-20T17:03:07.523Z,100336.00
2022-12-20T17:05:38.131Z,100327.25
2022-12-20T17:10:53.776Z,100329.17
2022-12-20T17:13:22.504Z,100323.06
2022-12-20T17:15:51.396Z,100307.92
2022-12-20T17:18:20.203Z,100304.80
2022-12-20T17:20:49.190Z,100309.29
2022-12-20T17:23:17.696Z,100317.89
2022-12-20T17:25:52.088Z,100320.23
2022-12-20T17:28:26.731Z,100314.73
2022-12-20T17:30:55.437Z,100313.36
2022-12-20T17:33:24.129Z,100315.02
2022-12-20T17:35:53.062Z,100313.63
2022-12-20T17:38:23.230Z,100299.13
2022-12-20T17:40:51.419Z,100298.84
2022-12-20T17:43:19.811Z,100300.80
2022-12-20T17:45:48.239Z,100307.95
2022-12-20T17:48:17.091Z,100301.10
2022-12-20T17:50:45.903Z,100295.13
2022-12-20T17:53:15.077Z,100293.59
2022-12-20T17:55:43.122Z,100289.21
2022-12-20T17:58:12.382Z,100290.06
2022-12-20T18:00:43.973Z,100285.56
2022-12-20T18:03:38.003Z,100282.09
2022-12-20T18:06:08.256Z,100282.02
2022-12-20T18:08:37.364Z,100282.38
2022-12-20T18:11:06.976Z,100278.36
2022-12-20T18:13:35.819Z,100276.23
2022-12-20T18:16:08.523Z,100267.43
2022-12-20T18:18:38.342Z,100269.35
2022-12-20T18:21:15.496Z,100265.88
2022-12-20T18:23:46.017Z,100267.94
2022-12-20T18:26:29.630Z,100266.20
2022-12-20T18:29:02.984Z,100263.32
2022-12-20T18:31:34.090Z,100258.33
2022-12-20T18:34:04.206Z,100253.30
2022-12-20T18:36:35.667Z,100255.85
2022-12-20T18:39:06.574Z,100256.61
2022-12-20T18:41:35.738Z,100261.52
2022-12-20T18:44:06.537Z,100263.02
2022-12-20T18:46:34.843Z,100263.52
2022-12-20T18:49:04.321Z,100256.21
2022-12-20T18:51:37.918Z,100253.64
2022-12-20T18:54:07.202Z,100252.26
2022-12-20T18:56:37.761Z,100248.51
2022-12-20T18:59:11.945Z,100245.39
2022-12-20T19:01:42.660Z,100242.39
2022-12-20T19:04:11.854Z,100245.52
2022-12-20T19:06:40.381Z,100247.42
2022-12-20T19:09:11.921Z,100248.59
2022-12-20T19:11:40.484Z,100247.80
2022-12-20T19:14:11.107Z,100243.20
2022-12-20T19:16:40.339Z,100243.52
2022-12-20T19:19:09.239Z,100243.36
2022-12-20T19:21:40.138Z,100239.83
2022-12-20T19:24:10.046Z,100234.23
2022-12-20T19:26:39.893Z,100233.12
2022-12-20T19:29:08.695Z,100233.39
2022-12-20T19:31:38.879Z,100233.55
2022-12-20T19:34:11.721Z,100235.11
2022-12-20T19:36:43.265Z,100231.58
2022-12-20T19:39:20.699Z,100231.70
2022-12-20T19:42:21.511Z,100238.29
2022-12-20T19:44:40.641Z,100236.98
2022-12-20T19:47:08.874Z,100228.13
2022-12-20T19:49:37.136Z,100223.95
2022-12-20T19:52:07.189Z,100226.79
2022-12-20T19:54:35.720Z,100218.84
2022-12-20T19:57:04.864Z,100214.91
2022-12-20T19:59:33.178Z,100213.48
2022-12-20T20:02:01.950Z,100218.65
2022-12-20T20:04:31.054Z,100213.61
2022-12-20T20:06:59.398Z,100210.92
2022-12-20T20:09:28.421Z,100211.55
2022-12-20T20:11:56.770Z,100214.06
2022-12-20T20:14:24.832Z,100213.60
2022-12-20T20:16:53.365Z,100220.57
2022-12-20T20:19:21.533Z,100220.05
2022-12-20T20:21:50.195Z,100214.81
2022-12-20T20:24:19.401Z,100208.55
2022-12-20T20:26:48.921Z,100211.59
2022-12-20T20:29:20.998Z,100212.77
2022-12-20T20:31:49.328Z,100209.36
2022-12-20T20:34:17.538Z,100212.30
2022-12-20T20:36:45.645Z,100215.18
2022-12-20T20:39:13.962Z,100216.55
2022-12-20T20:41:43.015Z,100217.59
2022-12-20T20:44:13.115Z,100222.50
2022-12-20T20:46:41.332Z,100222.95
2022-12-20T20:49:10.344Z,100223.21
2022-12-20T20:51:38.872Z,100226.96
2022-12-20T20:54:07.051Z,100222.58
2022-12-20T20:56:36.196Z,100227.04
2022-12-20T20:59:08.055Z,100225.74
2022-12-20T21:01:38.844Z,100223.02
2022-12-20T21:04:07.219Z,100220.05
2022-12-20T21:06:41.032Z,100216.44
2022-12-20T21:09:12.699Z,100208.08
2022-12-20T21:11:41.489Z,100209.55
2022-12-20T21:14:11.781Z,100213.84
2022-12-20T21:16:40.867Z,100213.22
2022-12-20T21:19:09.765Z,100203.45
2022-12-20T21:21:38.800Z,100204.25
2022-12-20T21:24:07.242Z,100195.95
2022-12-20T21:26:36.393Z,100194.02
2022-12-20T21:29:04.658Z,100193.30
2022-12-20T21:31:32.844Z,100198.64
2022-12-20T21:34:01.002Z,100199.16
2022-12-20T21:36:29.109Z,100200.04
2022-12-20T21:38:58.541Z,100205.66
2022-12-20T21:41:29.041Z,100209.45
2022-12-20T21:44:01.404Z,100208.24
2022-12-20T21:46:32.233Z,100204.27
2022-12-20T21:49:00.415Z,100197.66
2022-12-20T21:51:30.638Z,100192.66
2022-12-20T21:54:01.320Z,100190.67
2022-12-20T21:56:32.242Z,100188.78
2022-12-20T21:59:00.917Z,100185.83
2022-12-20T22:01:30.070Z,100190.30
2022-12-20T22:04:03.649Z,100194.72
2022-12-20T22:06:32.647Z,100191.84
2022-12-20T22:09:02.989Z,100186.27
2022-12-20T22:11:31.525Z,100185.44
2022-12-20T22:14:00.353Z,100182.20
2022-12-20T22:16:32.472Z,100181.19
2022-12-20T22:19:03.032Z,100181.61
2022-12-20T22:21:33.805Z,100182.46
2022-12-20T22:24:02.401Z,100181.33
2022-12-20T22:26:33.940Z,100175.48
2022-12-20T22:29:06.283Z,100164.70
2022-12-20T22:31:36.649Z,100160.30
2022-12-20T22:34:05.882Z,100154.65
2022-12-20T22:36:34.913Z,100155.83
2022-12-20T22:39:03.880Z,100154.27
2022-12-20T22:41:37.159Z,100146.34
2022-12-20T22:44:06.038Z,100140.42
2022-12-20T22:49:21.882Z,100125.10
2022-12-20T22:52:02.723Z,100118.48
2022-12-20T22:54:36.648Z,100118.55
2022-12-20T22:57:05.651Z,100114.02
2022-12-20T22:59:37.361Z,100115.64
2022-12-20T23:02:06.437Z,100118.55
2022-12-20T23:04:35.682Z,100117.14
2022-12-20T23:07:05.601Z,100114.04
2022-12-20T23:09:34.856Z,100114.27
2022-12-20T23:12:22.143Z,100119.32
2022-12-20T23:15:26.596Z,100116.92
2022-12-20T23:17:54.917Z,100109.84
2022-12-20T23:20:43.518Z,100098.87
2022-12-20T23:23:12.733Z,100091.42
2022-12-20T23:25:44.016Z,100077.01
2022-12-20T23:28:12.874Z,100074.84
2022-12-20T23:30:41.776Z,100069.05
2022-12-20T23:33:10.759Z,100061.77
2022-12-20T23:35:39.990Z,100059.15
2022-12-20T23:38:08.950Z,100056.98
2022-12-20T23:40:40.817Z,100065.98
2022-12-20T23:43:09.617Z,100070.02
2022-12-20T23:45:38.723Z,100068.16
2022-12-20T23:48:07.065Z,100058.75
2022-12-20T23:50:36.085Z,100060.44
2022-12-20T23:53:05.056Z,100061.79
2022-12-20T23:55:34.178Z,100057.47
2022-12-20T23:58:03.148Z,100047.14
